Time;durP1;ratioP1;P1;durP2;ratioP2;P2;SDS_P1;SDS_P2;PMS_P1;PMS_P2;Temp;Humidity;BMP_temperature;BMP_pressure;BME280_temperature;BME280_humidity;BME280_pressure;Samples;Min_cycle;Max_cycle;Signal;HPM_P1;HPM_P2
2021/09/09 00:02:29;;;;;;;27.05;15.18;;;;;;;16.05;100.00;101012.28;5190365;28;20029;-78
2021/09/09 00:05:00;;;;;;;26.08;16.08;;;;;;;16.05;100.00;101009.56;5172067;28;20025;-78
2021/09/09 00:07:30;;;;;;;24.55;15.82;;;;;;;16.07;100.00;101003.16;5193938;28;20030;-78
2021/09/09 00:10:01;;;;;;;29.17;15.48;;;;;;;16.08;100.00;100997.53;5195311;28;20064;-78
2021/09/09 00:12:32;;;;;;;26.77;15.20;;;;;;;16.07;100.00;100993.16;5191922;28;20101;-78
2021/09/09 00:15:03;;;;;;;25.73;15.63;;;;;;;16.04;100.00;100990.84;5188911;28;20433;-78
2021/09/09 00:17:34;;;;;;;28.90;15.70;;;;;;;16.01;100.00;100986.69;5191391;28;20026;-78
2021/09/09 00:20:07;;;;;;;25.27;15.75;;;;;;;16.03;100.00;100986.47;5181714;28;20084;-78
2021/09/09 00:22:39;;;;;;;28.73;16.60;;;;;;;16.03;100.00;100991.88;5194172;28;20151;-78
2021/09/09 00:25:10;;;;;;;29.77;16.15;;;;;;;16.03;100.00;100981.88;5194938;28;20564;-78
2021/09/09 00:27:40;;;;;;;27.40;16.40;;;;;;;16.03;100.00;100972.94;5195014;28;20029;-78
2021/09/09 00:30:12;;;;;;;26.13;16.30;;;;;;;16.03;100.00;100976.47;5190082;28;20033;-78
2021/09/09 00:32:42;;;;;;;27.05;16.25;;;;;;;16.02;100.00;100964.00;5188742;28;20478;-78
2021/09/09 00:35:13;;;;;;;26.05;16.40;;;;;;;16.00;100.00;100948.97;5191882;28;20060;-78
2021/09/09 00:37:43;;;;;;;26.67;15.35;;;;;;;15.99;100.00;100947.31;5181500;28;20030;-78
2021/09/09 00:40:14;;;;;;;24.67;15.55;;;;;;;15.95;100.00;100946.84;5202019;28;20021;-78
2021/09/09 00:42:44;;;;;;;27.60;15.63;;;;;;;15.93;100.00;100951.66;5170767;28;20033;-78
2021/09/09 00:45:15;;;;;;;27.00;16.27;;;;;;;15.90;100.00;100953.91;5188897;28;20026;-78
2021/09/09 00:47:45;;;;;;;27.00;15.05;;;;;;;15.86;100.00;100949.91;5184339;28;20025;-78
2021/09/09 00:50:16;;;;;;;29.05;15.32;;;;;;;15.83;100.00;100942.22;5198637;28;20029;-78
2021/09/09 00:52:48;;;;;;;26.75;14.10;;;;;;;15.79;100.00;100941.78;5193956;28;20033;-78
2021/09/09 00:55:20;;;;;;;31.10;16.02;;;;;;;15.76;100.00;100943.03;5194510;28;20078;-78
2021/09/09 00:57:50;;;;;;;27.75;16.52;;;;;;;15.77;100.00;100938.44;5190036;28;20445;-78
2021/09/09 01:00:21;;;;;;;28.33;16.13;;;;;;;15.78;100.00;100946.34;5188245;28;20025;-78
2021/09/09 01:02:52;;;;;;;22.77;14.35;;;;;;;15.78;100.00;100945.50;5191565;28;20022;-78
2021/09/09 01:05:22;;;;;;;27.27;15.77;;;;;;;15.80;100.00;100954.25;5181315;28;20028;-78
2021/09/09 01:07:54;;;;;;;29.95;15.52;;;;;;;15.82;100.00;100945.97;5193892;28;20029;-78
2021/09/09 01:10:24;;;;;;;33.03;16.38;;;;;;;15.85;100.00;100934.72;5188201;28;20048;-78
2021/09/09 01:12:55;;;;;;;26.58;15.23;;;;;;;15.86;100.00;100939.09;5187909;28;20029;-78
2021/09/09 01:15:41;;;;;;;25.55;15.05;;;;;;;15.85;100.00;100948.25;5189391;28;20087;-78
2021/09/09 01:18:13;;;;;;;22.75;14.80;;;;;;;15.85;100.00;100948.25;5188716;28;20056;-78
2021/09/09 01:20:44;;;;;;;29.48;15.68;;;;;;;15.83;100.00;100947.63;5201551;28;20109;-78
2021/09/09 01:23:16;;;;;;;24.13;14.77;;;;;;;15.83;100.00;100947.63;5187840;28;20031;-78
2021/09/09 01:25:46;;;;;;;26.73;15.88;;;;;;;15.76;100.00;100955.69;5188937;28;20065;-78
2021/09/09 01:28:17;;;;;;;22.80;14.18;;;;;;;15.70;100.00;100953.78;5200210;28;20028;-78
2021/09/09 01:30:47;;;;;;;27.50;15.80;;;;;;;15.65;100.00;100951.66;5187670;28;20396;-78
2021/09/09 01:33:18;;;;;;;26.33;15.27;;;;;;;15.62;100.00;100954.75;5188305;28;20021;-78
2021/09/09 01:35:48;;;;;;;25.67;16.50;;;;;;;15.58;100.00;100958.03;5186601;28;20390;-78
2021/09/09 01:38:22;;;;;;;26.40;16.77;;;;;;;15.54;100.00;100957.56;5172016;28;20021;-78
2021/09/09 01:40:53;;;;;;;31.08;16.08;;;;;;;15.53;100.00;100961.31;5184643;28;20033;-78
2021/09/09 01:43:24;;;;;;;25.38;15.48;;;;;;;15.51;100.00;100966.06;5180232;28;20030;-78
2021/09/09 01:45:54;;;;;;;23.67;14.45;;;;;;;15.46;100.00;100963.13;5193362;28;20112;-78
2021/09/09 01:48:25;;;;;;;26.25;15.90;;;;;;;15.39;100.00;100967.63;5191200;28;20108;-78
2021/09/09 01:50:56;;;;;;;29.20;16.40;;;;;;;15.32;100.00;100962.19;5186715;28;20552;-77
2021/09/09 01:53:26;;;;;;;27.38;17.40;;;;;;;15.26;100.00;100963.81;5187734;28;20022;-78
2021/09/09 01:56:00;;;;;;;28.13;16.38;;;;;;;15.23;100.00;100958.78;5200328;28;20025;-78
2021/09/09 01:58:30;;;;;;;28.20;16.13;;;;;;;15.21;100.00;100957.28;5187958;28;20022;-78
2021/09/09 02:01:01;;;;;;;26.35;15.45;;;;;;;15.19;100.00;100959.34;5191287;28;20534;-78
2021/09/09 02:03:32;;;;;;;30.00;17.35;;;;;;;15.18;100.00;100969.34;5196341;28;20544;-78
2021/09/09 02:06:03;;;;;;;28.42;16.33;;;;;;;15.20;100.00;100963.72;5201854;28;20117;-77
2021/09/09 02:08:33;;;;;;;29.73;16.20;;;;;;;15.19;100.00;100962.88;5189450;28;20044;-77
2021/09/09 02:11:04;;;;;;;25.80;15.90;;;;;;;15.18;100.00;100958.53;5202007;28;20065;-77
2021/09/09 02:13:35;;;;;;;31.65;16.13;;;;;;;15.14;100.00;100957.22;5183428;28;20535;-77
2021/09/09 02:16:07;;;;;;;26.98;15.45;;;;;;;15.11;100.00;100959.47;5194757;28;20033;-77
2021/09/09 02:18:37;;;;;;;29.95;17.38;;;;;;;15.07;100.00;100950.09;5189792;28;20124;-77
2021/09/09 02:21:08;;;;;;;30.23;17.70;;;;;;;15.06;100.00;100953.81;5188520;28;20026;-77
2021/09/09 02:23:38;;;;;;;27.98;15.60;;;;;;;15.03;100.00;100958.59;5202175;28;20120;-77
2021/09/09 02:26:10;;;;;;;24.63;16.73;;;;;;;15.00;100.00;100953.56;5188560;28;20108;-77
2021/09/09 02:28:41;;;;;;;26.23;16.13;;;;;;;14.95;100.00;100963.25;5191977;28;20034;-77
2021/09/09 02:31:11;;;;;;;28.83;16.40;;;;;;;14.92;100.00;100963.66;5194039;28;20024;-77
2021/09/09 02:33:42;;;;;;;29.98;16.90;;;;;;;14.84;100.00;100953.81;5192604;28;20437;-77
2021/09/09 02:36:12;;;;;;;28.88;17.63;;;;;;;14.81;100.00;100950.66;5188328;28;20026;-77
2021/09/09 02:38:43;;;;;;;27.88;17.08;;;;;;;14.72;100.00;100945.38;5189829;28;20057;-77
2021/09/09 02:41:13;;;;;;;29.48;16.55;;;;;;;14.69;100.00;100945.75;5196643;28;20033;-77
2021/09/09 02:43:44;;;;;;;31.33;16.00;;;;;;;14.64;100.00;100941.97;5186905;28;20036;-77
2021/09/09 02:46:14;;;;;;;32.92;16.50;;;;;;;14.64;100.00;100947.34;5197525;28;20037;-77
2021/09/09 02:48:45;;;;;;;24.77;15.10;;;;;;;14.59;100.00;100953.31;5181528;28;20037;-77
2021/09/09 02:51:15;;;;;;;25.27;14.82;;;;;;;14.53;100.00;100953.25;5195398;28;20028;-77
2021/09/09 02:53:46;;;;;;;29.45;17.25;;;;;;;14.45;100.00;100943.34;5188458;28;20526;-77
2021/09/09 02:56:16;;;;;;;28.67;17.27;;;;;;;14.36;100.00;100948.03;5194077;28;20068;-77
2021/09/09 02:58:47;;;;;;;27.85;17.50;;;;;;;14.31;100.00;100953.19;5198365;28;20510;-77
2021/09/09 03:01:17;;;;;;;27.80;16.67;;;;;;;14.30;100.00;100956.88;5194639;28;20029;-77
2021/09/09 03:03:48;;;;;;;30.30;17.02;;;;;;;14.32;100.00;100956.72;5190429;28;20444;-77
2021/09/09 03:06:18;;;;;;;30.77;16.75;;;;;;;14.30;100.00;100950.63;5204699;28;20066;-77
2021/09/09 03:08:49;;;;;;;32.90;18.30;;;;;;;14.28;100.00;100960.81;5191247;28;20403;-77
2021/09/09 03:11:19;;;;;;;30.77;17.48;;;;;;;14.25;100.00;100962.00;5203427;28;20034;-77
2021/09/09 03:13:50;;;;;;;28.55;16.27;;;;;;;14.25;100.00;100960.13;5192517;28;20040;-77
2021/09/09 03:16:20;;;;;;;35.10;19.38;;;;;;;14.21;100.00;100958.84;5184994;28;20017;-77
2021/09/09 03:18:51;;;;;;;35.70;18.38;;;;;;;14.17;100.00;100957.56;5192179;28;20025;-77
2021/09/09 03:21:21;;;;;;;27.17;17.15;;;;;;;14.16;100.00;100955.88;5190949;28;20029;-77
2021/09/09 03:23:52;;;;;;;31.38;17.88;;;;;;;14.14;100.00;100954.38;5194489;28;20034;-77
2021/09/09 03:26:23;;;;;;;29.70;17.73;;;;;;;14.14;100.00;100952.53;5197160;28;20479;-77
2021/09/09 03:28:53;;;;;;;28.38;18.08;;;;;;;14.13;100.00;100950.00;5196251;28;20052;-77
2021/09/09 03:31:24;;;;;;;33.97;17.02;;;;;;;14.09;100.00;100949.53;5185659;28;20034;-77
2021/09/09 03:33:55;;;;;;;26.60;17.05;;;;;;;14.09;100.00;100943.31;5196685;28;20026;-77
2021/09/09 03:36:25;;;;;;;24.98;15.18;;;;;;;14.09;100.00;100937.91;5183775;28;20519;-77
2021/09/09 03:38:56;;;;;;;25.65;15.23;;;;;;;14.09;100.00;100936.06;5197494;28;20037;-77
2021/09/09 03:41:26;;;;;;;23.15;13.38;;;;;;;14.09;100.00;100932.53;5183900;28;20032;-77
2021/09/09 03:43:57;;;;;;;28.63;16.85;;;;;;;14.10;100.00;100924.22;5178178;28;20029;-76
2021/09/09 03:46:27;;;;;;;31.58;16.60;;;;;;;14.12;100.00;100922.22;5183584;28;20022;-77
2021/09/09 03:48:58;;;;;;;33.63;17.85;;;;;;;14.14;100.00;100916.59;5194509;28;20083;-77
2021/09/09 03:51:28;;;;;;;27.00;16.95;;;;;;;14.13;100.00;100912.25;5183433;28;20117;-77
2021/09/09 03:53:59;;;;;;;30.52;17.38;;;;;;;14.14;100.00;100912.06;5189278;28;20405;-76
2021/09/09 03:56:29;;;;;;;36.33;17.15;;;;;;;14.15;100.00;100921.81;5191850;28;20450;-77
2021/09/09 03:59:00;;;;;;;32.80;17.35;;;;;;;14.16;100.00;100909.19;5196528;28;20108;-77
2021/09/09 04:01:30;;;;;;;30.25;17.67;;;;;;;14.17;100.00;100911.69;5183687;28;20022;-76
2021/09/09 04:04:01;;;;;;;28.48;17.67;;;;;;;14.17;100.00;100918.94;5203778;28;20498;-77
2021/09/09 04:06:31;;;;;;;28.52;16.40;;;;;;;14.14;100.00;100930.94;5203457;28;20446;-76
2021/09/09 04:09:02;;;;;;;33.92;16.65;;;;;;;14.10;100.00;100931.50;5195841;28;20112;-78
2021/09/09 04:11:33;;;;;;;31.35;17.88;;;;;;;14.05;100.00;100934.75;5194331;28;20099;-77
2021/09/09 04:14:04;;;;;;;37.85;19.42;;;;;;;14.00;100.00;100931.78;5193143;28;20025;-77
2021/09/09 04:16:34;;;;;;;33.03;17.40;;;;;;;14.03;100.00;100933.28;5198337;28;20458;-77
2021/09/09 04:19:05;;;;;;;30.67;16.48;;;;;;;14.06;100.00;100924.81;5182569;28;20038;-77
2021/09/09 04:21:35;;;;;;;28.55;15.70;;;;;;;14.11;100.00;100914.31;5195728;28;20033;-77
2021/09/09 04:24:06;;;;;;;28.45;16.38;;;;;;;14.14;100.00;100903.13;5176655;28;20021;-77
2021/09/09 04:26:36;;;;;;;29.63;17.42;;;;;;;14.16;100.00;100906.50;5188804;28;20026;-77
2021/09/09 04:29:07;;;;;;;28.15;17.13;;;;;;;14.16;100.00;100896.53;5189383;28;20018;-77
2021/09/09 04:31:37;;;;;;;32.15;18.92;;;;;;;14.19;100.00;100901.53;5203108;28;20034;-77
2021/09/09 04:34:08;;;;;;;30.83;16.55;;;;;;;14.20;100.00;100902.38;5201299;28;20025;-77
2021/09/09 04:36:38;;;;;;;28.33;16.63;;;;;;;14.20;100.00;100897.81;5189842;28;20047;-78
2021/09/09 04:39:09;;;;;;;31.92;17.58;;;;;;;14.22;100.00;100905.72;5189068;28;20391;-78
2021/09/09 04:41:40;;;;;;;31.92;16.92;;;;;;;14.20;100.00;100902.38;5191602;28;20030;-78
2021/09/09 04:44:10;;;;;;;29.30;16.50;;;;;;;14.15;100.00;100923.66;5185960;28;20637;-78
2021/09/09 04:46:41;;;;;;;31.77;17.48;;;;;;;14.07;100.00;100932.72;5190018;28;20030;-77
2021/09/09 04:49:11;;;;;;;29.98;17.23;;;;;;;14.06;100.00;100922.13;5197247;28;20018;-77
2021/09/09 04:51:42;;;;;;;29.05;17.63;;;;;;;14.12;100.00;100911.41;5189264;28;20026;-77
2021/09/09 04:54:12;;;;;;;32.88;18.42;;;;;;;14.19;100.00;100919.59;5194649;28;20061;-77
2021/09/09 04:56:43;;;;;;;27.40;17.13;;;;;;;14.20;100.00;100922.09;5194239;28;20025;-78
2021/09/09 04:59:14;;;;;;;29.90;16.23;;;;;;;14.24;100.00;100909.91;5181182;28;20171;-78
2021/09/09 05:01:44;;;;;;;29.73;16.42;;;;;;;14.25;100.00;100902.63;5194569;28;20029;-78
2021/09/09 05:04:15;;;;;;;32.95;16.80;;;;;;;14.26;100.00;100915.13;5181027;28;20053;-78
2021/09/09 05:06:45;;;;;;;25.20;15.80;;;;;;;14.23;100.00;100904.69;5194139;28;20030;-78
2021/09/09 05:09:16;;;;;;;27.50;17.02;;;;;;;14.22;100.00;100909.25;5191701;28;20159;-78
2021/09/09 05:11:46;;;;;;;31.10;17.05;;;;;;;14.22;100.00;100911.13;5190593;28;20029;-78
2021/09/09 05:14:17;;;;;;;26.23;16.23;;;;;;;14.22;100.00;100911.97;5191924;28;20029;-78
2021/09/09 05:16:47;;;;;;;31.63;16.27;;;;;;;14.25;100.00;100911.56;5187094;28;20036;-78
2021/09/09 05:19:18;;;;;;;25.92;15.60;;;;;;;14.31;100.00;100912.69;5187406;28;20479;-79
2021/09/09 05:21:48;;;;;;;25.67;15.77;;;;;;;14.31;100.00;100906.44;5192887;28;20026;-78
2021/09/09 05:24:19;;;;;;;27.05;15.98;;;;;;;14.32;100.00;100921.63;5193245;28;20025;-79
2021/09/09 05:26:49;;;;;;;26.58;15.05;;;;;;;14.34;100.00;100914.16;5170540;28;20065;-78
2021/09/09 05:29:22;;;;;;;27.35;16.10;;;;;;;14.41;100.00;100917.78;5197836;28;20036;-78
2021/09/09 05:31:53;;;;;;;27.02;16.23;;;;;;;14.48;100.00;100927.66;5180235;28;20449;-79
2021/09/09 05:34:24;;;;;;;24.95;15.18;;;;;;;14.55;100.00;100930.44;5184535;28;20430;-78
2021/09/09 05:36:55;;;;;;;23.98;14.98;;;;;;;14.58;100.00;100931.94;5192040;28;20029;-80
2021/09/09 05:39:26;;;;;;;28.38;16.38;;;;;;;14.65;100.00;100924.72;5196208;28;20534;-80
2021/09/09 05:41:56;;;;;;;28.80;15.55;;;;;;;14.76;100.00;100930.47;5182498;28;20454;-79
2021/09/09 05:44:27;;;;;;;28.10;16.33;;;;;;;14.90;100.00;100930.59;5195752;28;20021;-83
2021/09/09 05:46:57;;;;;;;25.77;15.98;;;;;;;15.04;100.00;100932.41;5193974;28;20087;-78
2021/09/09 05:49:28;;;;;;;29.45;14.80;;;;;;;15.17;100.00;100929.84;5173415;28;20041;-78
2021/09/09 05:51:58;;;;;;;25.38;14.05;;;;;;;15.34;100.00;100927.69;5200714;28;20762;-78
2021/09/09 05:54:30;;;;;;;23.30;14.60;;;;;;;15.51;100.00;100922.81;5201531;28;20056;-78
2021/09/09 05:57:02;;;;;;;24.45;14.15;;;;;;;15.72;100.00;100922.81;5184598;28;20033;-77
2021/09/09 05:59:33;;;;;;;28.42;14.77;;;;;;;15.93;100.00;100911.06;5180331;28;20030;-78
2021/09/09 06:02:15;;;;;;;22.13;13.98;;;;;;;16.22;100.00;100911.84;5184597;28;20521;-77
2021/09/09 06:04:47;;;;;;;21.77;13.85;;;;;;;16.87;100.00;100909.53;5188375;28;20022;-78
2021/09/09 06:07:18;;;;;;;22.65;13.73;;;;;;;17.86;100.00;100904.94;5193419;28;20034;-78
2021/09/09 06:09:49;;;;;;;20.33;12.82;;;;;;;18.86;100.00;100908.06;5181552;28;20022;-78
2021/09/09 06:12:26;;;;;;;21.65;12.23;;;;;;;19.85;100.00;100906.41;5191387;28;20030;-78
2021/09/09 06:14:57;;;;;;;20.33;12.48;;;;;;;20.80;100.00;100900.41;5182630;28;20099;-78
2021/09/09 06:17:27;;;;;;;18.65;11.20;;;;;;;21.53;100.00;100906.59;5195845;28;20025;-78
2021/09/09 06:19:58;;;;;;;20.13;11.63;;;;;;;22.29;100.00;100913.78;5200018;28;20026;-78
2021/09/09 06:22:28;;;;;;;16.40;10.75;;;;;;;22.83;100.00;100922.47;5196077;28;20041;-78
2021/09/09 06:24:59;;;;;;;20.98;10.20;;;;;;;23.11;100.00;100931.75;5204848;28;20025;-78
2021/09/09 06:27:29;;;;;;;19.90;10.30;;;;;;;22.98;100.00;100933.69;5204718;28;20045;-78
2021/09/09 06:30:00;;;;;;;16.75;10.40;;;;;;;23.33;100.00;100940.03;5192833;28;20036;-80
2021/09/09 06:32:30;;;;;;;17.77;10.80;;;;;;;23.74;100.00;100936.88;5204103;28;20023;-79
2021/09/09 06:35:02;;;;;;;17.25;9.43;;;;;;;24.36;100.00;100944.06;5195292;28;20030;-81
2021/09/09 06:37:32;;;;;;;14.45;9.73;;;;;;;24.38;100.00;100946.56;5197682;28;20479;-80
2021/09/09 06:40:03;;;;;;;22.23;10.30;;;;;;;24.32;100.00;100942.88;5167597;28;20044;-79
2021/09/09 06:42:34;;;;;;;20.70;10.10;;;;;;;23.46;100.00;100942.47;5197532;28;20022;-79
2021/09/09 06:45:06;;;;;;;18.40;10.02;;;;;;;23.58;100.00;100934.97;5195770;28;20128;-79
2021/09/09 06:47:37;;;;;;;15.88;10.55;;;;;;;23.69;100.00;100941.47;5185687;28;20026;-79
2021/09/09 06:50:08;;;;;;;16.75;11.15;;;;;;;23.19;100.00;100945.00;5196858;28;20438;-79
2021/09/09 06:52:39;;;;;;;17.90;10.43;;;;;;;22.78;100.00;100952.44;5198403;28;20432;-79
2021/09/09 06:55:10;;;;;;;20.13;10.80;;;;;;;22.20;100.00;100950.75;5196928;28;20109;-79
2021/09/09 06:57:40;;;;;;;18.92;10.68;;;;;;;21.75;100.00;100951.34;5191684;28;20029;-79
2021/09/09 07:00:11;;;;;;;17.75;11.45;;;;;;;21.43;100.00;100948.94;5188845;28;20022;-79
2021/09/09 07:02:42;;;;;;;24.27;12.82;;;;;;;21.08;100.00;100948.84;5183570;28;20109;-79
2021/09/09 07:05:13;;;;;;;21.15;11.27;;;;;;;21.20;100.00;100940.72;5197136;28;20557;-79
2021/09/09 07:07:43;;;;;;;17.13;10.20;;;;;;;21.56;100.00;100939.72;5194982;28;20025;-79
2021/09/09 07:10:14;;;;;;;16.08;11.23;;;;;;;21.41;100.00;100944.78;5204270;28;20390;-79
2021/09/09 07:12:45;;;;;;;19.58;11.45;;;;;;;21.18;100.00;100945.53;5192152;28;20022;-79
2021/09/09 07:15:15;;;;;;;19.00;11.65;;;;;;;20.99;100.00;100953.00;5183266;28;20475;-78
2021/09/09 07:17:46;;;;;;;21.77;11.95;;;;;;;20.68;100.00;100948.59;5183512;28;20022;-78
2021/09/09 07:20:16;;;;;;;24.38;11.57;;;;;;;20.67;100.00;100946.91;5196437;28;20444;-78
2021/09/09 07:22:47;;;;;;;23.05;10.77;;;;;;;20.80;100.00;100960.38;5184084;28;20080;-78
2021/09/09 07:25:17;;;;;;;25.30;12.48;;;;;;;20.85;100.00;100951.50;5203427;28;20434;-78
2021/09/09 07:27:48;;;;;;;20.00;11.77;;;;;;;21.04;100.00;100955.84;5201565;28;20494;-78
2021/09/09 07:30:18;;;;;;;20.20;11.65;;;;;;;21.42;100.00;100947.28;5165661;28;20022;-78
2021/09/09 07:32:49;;;;;;;18.52;11.75;;;;;;;22.58;100.00;100952.06;5198905;28;20033;-78
2021/09/09 07:35:19;;;;;;;20.23;11.10;;;;;;;23.90;100.00;100959.88;5203245;28;20100;-78
2021/09/09 07:37:50;;;;;;;19.83;11.82;;;;;;;24.87;100.00;100968.50;5189912;28;20033;-79
2021/09/09 07:40:21;;;;;;;20.95;11.15;;;;;;;25.13;100.00;100977.84;5192503;28;20061;-78
2021/09/09 07:42:51;;;;;;;18.35;10.85;;;;;;;24.58;100.00;100976.97;5201984;28;20021;-78
2021/09/09 07:45:22;;;;;;;28.40;11.95;;;;;;;24.65;100.00;100984.97;5189389;28;20029;-80
2021/09/09 07:47:52;;;;;;;20.00;10.68;;;;;;;25.21;100.00;100972.72;5191372;28;20024;-79
2021/09/09 07:50:23;;;;;;;19.70;10.73;;;;;;;26.00;100.00;100969.22;5200415;28;20558;-79
2021/09/09 07:52:53;;;;;;;23.42;11.63;;;;;;;26.88;100.00;100968.50;5195027;28;20049;-78
2021/09/09 07:55:24;;;;;;;21.70;11.07;;;;;;;28.39;100.00;100978.94;5182940;28;20068;-82
2021/09/09 07:57:55;;;;;;;19.08;10.82;;;;;;;28.75;100.00;100984.28;5183628;28;20030;-78
2021/09/09 08:00:25;;;;;;;15.77;9.98;;;;;;;28.53;100.00;100973.66;5195423;28;20539;-80
2021/09/09 08:02:56;;;;;;;19.92;10.30;;;;;;;28.93;100.00;100983.63;5182560;28;20037;-79
2021/09/09 08:05:26;;;;;;;22.27;10.55;;;;;;;28.79;100.00;100983.44;5194740;28;20041;-80
2021/09/09 08:07:57;;;;;;;21.60;10.35;;;;;;;28.69;100.00;100988.19;5183102;28;20025;-79
2021/09/09 08:10:27;;;;;;;18.42;10.45;;;;;;;28.43;100.00;100993.81;5202509;28;20025;-79
2021/09/09 08:12:58;;;;;;;22.92;10.63;;;;;;;28.84;100.00;100990.88;5202557;28;20026;-78
2021/09/09 08:15:28;;;;;;;22.10;11.30;;;;;;;29.60;99.45;100987.59;5202522;28;20104;-79
2021/09/09 08:17:59;;;;;;;15.45;9.70;;;;;;;28.66;100.00;100992.34;5188216;28;20389;-79
2021/09/09 08:20:30;;;;;;;18.13;9.45;;;;;;;29.53;98.20;100998.16;5182481;28;20388;-80
2021/09/09 08:23:00;;;;;;;20.58;10.07;;;;;;;28.42;100.00;100994.13;5198622;28;20036;-82
2021/09/09 08:25:30;;;;;;;14.60;10.18;;;;;;;27.38;100.00;100994.50;5202138;28;20043;-80
2021/09/09 08:28:01;;;;;;;17.85;9.73;;;;;;;27.01;100.00;100997.44;5185391;28;20026;-82
2021/09/09 08:30:31;;;;;;;20.55;10.30;;;;;;;26.35;100.00;101000.75;5182196;28;20022;-79
2021/09/09 08:33:02;;;;;;;19.00;9.95;;;;;;;27.14;100.00;100993.38;5200628;28;20021;-80
2021/09/09 08:35:32;;;;;;;20.17;9.70;;;;;;;27.08;100.00;100996.13;5174354;28;20034;-80
2021/09/09 08:38:03;;;;;;;15.85;9.45;;;;;;;27.24;100.00;101001.66;5188815;28;20144;-79
2021/09/09 08:40:36;;;;;;;20.73;9.90;;;;;;;27.93;100.00;101009.38;5188872;28;20270;-79
2021/09/09 08:43:08;;;;;;;21.73;10.25;;;;;;;28.53;100.00;101012.28;5190076;28;20026;-79
2021/09/09 08:45:38;;;;;;;19.58;10.57;;;;;;;29.07;100.00;101017.84;5201687;28;20021;-79
2021/09/09 08:48:11;;;;;;;25.45;10.30;;;;;;;28.65;100.00;101019.09;5202223;28;20128;-79
2021/09/09 08:50:41;;;;;;;16.63;9.52;;;;;;;29.89;98.27;101012.50;5199115;28;20131;-79
2021/09/09 08:53:14;;;;;;;16.67;10.20;;;;;;;29.60;90.41;101020.78;5190357;28;20156;-79
2021/09/09 08:55:44;;;;;;;25.13;10.35;;;;;;;29.35;98.28;101019.00;5181195;28;20097;-80
2021/09/09 08:58:16;;;;;;;17.15;11.52;;;;;;;29.71;88.78;101023.44;5177305;28;20421;-78
2021/09/09 09:01:17;;;;;;;20.30;9.80;;;;;;;30.70;90.90;101023.81;5180211;28;20053;-79
2021/09/09 09:03:56;;;;;;;18.40;10.63;;;;;;;29.53;92.50;101024.97;5199037;28;20033;-79
2021/09/09 09:06:30;;;;;;;18.70;9.73;;;;;;;29.63;100.00;101025.72;5188375;28;20021;-79
2021/09/09 09:09:08;;;;;;;21.80;10.05;;;;;;;30.39;89.59;101026.09;5194302;28;20079;-79
2021/09/09 09:11:41;;;;;;;19.23;9.32;;;;;;;30.43;90.21;101016.91;5197895;28;20047;-79
2021/09/09 09:14:16;;;;;;;14.88;8.90;;;;;;;29.91;91.83;101026.84;5181891;28;20483;-80
2021/09/09 09:16:50;;;;;;;15.23;8.93;;;;;;;29.67;95.57;101025.97;5200957;28;20083;-80
2021/09/09 09:19:24;;;;;;;17.35;8.85;;;;;;;29.09;100.00;101025.81;5203750;28;20025;-80
2021/09/09 09:21:57;;;;;;;10.20;7.53;;;;;;;29.66;99.30;101022.38;5190007;28;20033;-80
2021/09/09 09:24:33;;;;;;;15.77;8.00;;;;;;;29.16;100.00;101027.13;5190201;28;20792;-80
2021/09/09 09:27:06;;;;;;;14.30;9.25;;;;;;;29.55;100.00;101028.28;5202815;28;20029;-80
2021/09/09 09:29:37;;;;;;;13.10;7.30;;;;;;;30.42;100.00;101019.97;5185312;28;20026;-80
2021/09/09 09:32:10;;;;;;;12.35;7.65;;;;;;;31.15;86.81;101022.34;5193383;28;20026;-79
2021/09/09 09:34:42;;;;;;;13.88;6.65;;;;;;;30.98;78.67;101024.81;5196462;28;20471;-80
2021/09/09 09:37:20;;;;;;;8.07;6.15;;;;;;;30.15;83.86;101018.63;5194975;28;20033;-79
2021/09/09 09:39:50;;;;;;;9.43;6.07;;;;;;;30.16;92.74;101020.25;5182741;28;20026;-79
2021/09/09 09:42:26;;;;;;;8.75;6.28;;;;;;;29.40;96.99;101027.25;5194805;28;20048;-79
2021/09/09 09:45:15;;;;;;;10.65;6.28;;;;;;;29.51;91.96;101027.19;5192493;28;20025;-79
2021/09/09 09:47:45;;;;;;;13.38;6.85;;;;;;;28.37;100.00;101025.31;5195561;28;20022;-79
2021/09/09 09:50:18;;;;;;;9.13;6.32;;;;;;;27.98;100.00;101023.16;5198212;28;20568;-79
2021/09/09 09:52:50;;;;;;;10.30;6.38;;;;;;;27.36;100.00;101026.97;5201671;28;20056;-79
2021/09/09 09:55:23;;;;;;;9.20;5.93;;;;;;;27.23;100.00;101028.34;5188583;28;20071;-79
2021/09/09 09:57:55;;;;;;;13.90;6.85;;;;;;;27.28;100.00;101013.78;5191657;28;20379;-79
2021/09/09 10:00:25;;;;;;;11.85;5.95;;;;;;;27.15;100.00;101025.31;5185483;28;20024;-78
2021/09/09 10:02:56;;;;;;;10.13;6.43;;;;;;;27.08;100.00;101034.66;5201207;28;20025;-78
2021/09/09 10:05:29;;;;;;;12.73;6.85;;;;;;;27.15;100.00;101020.63;5182728;28;20368;-79
2021/09/09 10:07:59;;;;;;;14.90;7.00;;;;;;;26.63;100.00;101032.56;5194324;28;20026;-79
2021/09/09 10:10:30;;;;;;;13.07;7.75;;;;;;;25.92;100.00;101030.19;5188381;28;20064;-79
2021/09/09 10:13:02;;;;;;;13.80;7.28;;;;;;;25.34;100.00;101020.06;5186018;28;20022;-79
2021/09/09 10:15:33;;;;;;;9.73;6.85;;;;;;;25.25;100.00;101026.03;5180627;28;20438;-78
2021/09/09 10:18:05;;;;;;;13.50;8.07;;;;;;;25.35;100.00;101024.44;5196778;28;20021;-79
2021/09/09 10:20:41;;;;;;;11.25;7.13;;;;;;;25.53;100.00;101033.16;5190967;28;20030;-78
2021/09/09 10:23:14;;;;;;;12.75;7.95;;;;;;;25.57;100.00;101026.03;5168071;28;20108;-79
2021/09/09 10:25:48;;;;;;;13.07;7.93;;;;;;;25.80;100.00;101022.16;5188537;28;20038;-79
2021/09/09 10:28:34;;;;;;;14.43;7.95;;;;;;;26.32;100.00;101026.06;5180985;28;20026;-79
2021/09/09 10:31:07;;;;;;;13.43;7.47;;;;;;;26.50;100.00;101025.59;5194220;28;20096;-79
2021/09/09 10:33:47;;;;;;;16.00;8.02;;;;;;;27.17;100.00;101028.63;5180712;28;20022;-79
2021/09/09 10:36:39;;;;;;;14.77;8.15;;;;;;;27.26;100.00;101018.72;5193849;28;20133;-79
2021/09/09 10:39:10;;;;;;;16.92;9.30;;;;;;;28.01;100.00;101032.78;5193911;28;20030;-79
2021/09/09 10:41:41;;;;;;;14.35;8.15;;;;;;;28.01;100.00;101028.09;5173649;28;20495;-79
2021/09/09 10:44:12;;;;;;;15.20;8.00;;;;;;;28.24;100.00;101031.38;5187994;28;20018;-79
2021/09/09 10:46:45;;;;;;;16.50;8.02;;;;;;;28.26;100.00;101034.66;5189790;28;20032;-79
2021/09/09 10:49:19;;;;;;;13.65;7.03;;;;;;;28.44;100.00;101028.59;5196733;28;20367;-79
2021/09/09 10:52:05;;;;;;;15.90;7.77;;;;;;;27.83;100.00;101025.94;5183828;28;20119;-79
2021/09/09 10:55:02;;;;;;;14.90;8.90;;;;;;;26.89;100.00;101027.97;5181139;28;20029;-79
2021/09/09 10:57:33;;;;;;;16.85;9.13;;;;;;;26.47;100.00;101025.34;5187830;28;20025;-79
2021/09/09 11:00:07;;;;;;;12.38;7.75;;;;;;;26.45;100.00;101025.59;5186942;28;20018;-78
2021/09/09 11:02:45;;;;;;;15.30;9.25;;;;;;;26.63;100.00;101021.56;5195428;28;20032;-79
2021/09/09 11:05:16;;;;;;;14.18;8.82;;;;;;;27.29;100.00;101020.94;5197970;28;20092;-81
2021/09/09 11:07:47;;;;;;;15.07;9.15;;;;;;;27.13;100.00;101022.84;5196879;28;20112;-79
2021/09/09 11:10:17;;;;;;;15.43;9.85;;;;;;;26.62;100.00;101016.31;5205114;28;20478;-79
2021/09/09 11:12:53;;;;;;;17.17;9.90;;;;;;;26.44;100.00;101018.44;5187614;28;20064;-82
2021/09/09 11:15:31;;;;;;;16.63;9.77;;;;;;;26.34;100.00;101012.84;5204482;28;20392;-81
2021/09/09 11:18:03;;;;;;;15.48;8.75;;;;;;;26.18;100.00;101014.69;5205302;28;20105;-80
2021/09/09 11:20:33;;;;;;;20.55;10.63;;;;;;;26.39;100.00;101006.56;5204019;28;20319;-80
2021/09/09 11:23:09;;;;;;;17.27;9.50;;;;;;;26.46;100.00;101019.00;5190912;28;20068;-80
2021/09/09 11:25:39;;;;;;;19.60;9.73;;;;;;;26.62;100.00;101016.31;5193952;28;20026;-80